Terminal Aerodrome Forecast
Issued by NWS

Home | Current Version | Previous Version | Text Only | Print | Product List | Glossary On
Versions: 1 2 3 4 5 6 7 8 9 10 11 12 13
981
FTUS46 KMTR 221125
TAFSTS
TAF
KSTS 221125Z 2212/2312 00000KT 1SM BR OVC002
      TEMPO 2212/2216 1/2SM FG VV001
     FM221900 17007KT P6SM SKC
     FM222200 19010KT P6SM SKC
     FM230300 16005KT P6SM SKC
     FM230900 00000KT 3SM BR OVC003=

USA.gov is the U.S. government's official web portal to all federal, state and local government web resources and services.